sensor_id;sensor_type;location;lat;lon;timestamp;P1;durP1;ratioP1;P2;durP2;ratioP2
71947;SDS011;63257;55.082;38.772;2023-11-18T00:00:20;11.60;;;2.47;;
71947;SDS011;63257;55.082;38.772;2023-11-18T00:02:46;7.82;;;2.40;;
71947;SDS011;63257;55.082;38.772;2023-11-18T00:05:11;9.65;;;2.72;;
71947;SDS011;63257;55.082;38.772;2023-11-18T00:07:37;6.90;;;2.17;;
71947;SDS011;63257;55.082;38.772;2023-11-18T00:10:04;7.72;;;2.72;;
71947;SDS011;63257;55.082;38.772;2023-11-18T00:12:32;10.32;;;3.08;;
71947;SDS011;63257;55.082;38.772;2023-11-18T00:15:01;6.43;;;2.50;;
71947;SDS011;63257;55.082;38.772;2023-11-18T00:17:31;9.73;;;2.65;;
71947;SDS011;63257;55.082;38.772;2023-11-18T00:19:57;8.55;;;2.80;;
71947;SDS011;63257;55.082;38.772;2023-11-18T00:22:23;14.53;;;3.33;;
71947;SDS011;63257;55.082;38.772;2023-11-18T00:24:49;8.32;;;3.33;;
71947;SDS011;63257;55.082;38.772;2023-11-18T00:27:15;12.13;;;3.20;;
71947;SDS011;63257;55.082;38.772;2023-11-18T00:29:41;10.07;;;2.60;;
71947;SDS011;63257;55.082;38.772;2023-11-18T00:32:09;6.88;;;2.53;;
71947;SDS011;63257;55.082;38.772;2023-11-18T00:34:35;8.83;;;2.87;;
71947;SDS011;63257;55.082;38.772;2023-11-18T00:37:01;10.98;;;3.13;;
71947;SDS011;63257;55.082;38.772;2023-11-18T00:39:27;7.57;;;2.58;;
71947;SDS011;63257;55.082;38.772;2023-11-18T00:41:53;8.33;;;2.30;;
71947;SDS011;63257;55.082;38.772;2023-11-18T00:44:21;7.32;;;2.50;;
71947;SDS011;63257;55.082;38.772;2023-11-18T00:46:47;9.32;;;3.10;;
71947;SDS011;63257;55.082;38.772;2023-11-18T00:49:13;10.90;;;3.03;;
71947;SDS011;63257;55.082;38.772;2023-11-18T00:51:39;9.77;;;2.67;;
71947;SDS011;63257;55.082;38.772;2023-11-18T00:54:06;13.25;;;3.63;;
71947;SDS011;63257;55.082;38.772;2023-11-18T00:56:33;12.35;;;2.92;;
71947;SDS011;63257;55.082;38.772;2023-11-18T00:58:59;14.52;;;3.22;;
71947;SDS011;63257;55.082;38.772;2023-11-18T01:01:29;10.25;;;3.47;;
71947;SDS011;63257;55.082;38.772;2023-11-18T01:03:55;8.90;;;3.25;;
71947;SDS011;63257;55.082;38.772;2023-11-18T01:06:25;6.00;;;2.00;;
71947;SDS011;63257;55.082;38.772;2023-11-18T01:08:52;9.73;;;3.00;;
71947;SDS011;63257;55.082;38.772;2023-11-18T01:11:19;10.82;;;3.55;;
71947;SDS011;63257;55.082;38.772;2023-11-18T01:13:46;7.57;;;2.73;;
71947;SDS011;63257;55.082;38.772;2023-11-18T01:16:12;12.40;;;3.33;;
71947;SDS011;63257;55.082;38.772;2023-11-18T01:18:40;8.20;;;3.08;;
71947;SDS011;63257;55.082;38.772;2023-11-18T01:21:07;13.13;;;4.00;;
71947;SDS011;63257;55.082;38.772;2023-11-18T01:23:38;11.73;;;3.90;;
71947;SDS011;63257;55.082;38.772;2023-11-18T01:26:07;9.35;;;3.65;;
71947;SDS011;63257;55.082;38.772;2023-11-18T01:28:34;13.70;;;3.60;;
71947;SDS011;63257;55.082;38.772;2023-11-18T01:31:07;11.70;;;3.93;;
71947;SDS011;63257;55.082;38.772;2023-11-18T01:33:36;9.32;;;3.75;;
71947;SDS011;63257;55.082;38.772;2023-11-18T01:36:05;10.15;;;3.40;;
71947;SDS011;63257;55.082;38.772;2023-11-18T01:38:35;10.83;;;3.63;;
71947;SDS011;63257;55.082;38.772;2023-11-18T01:41:04;12.55;;;3.80;;
71947;SDS011;63257;55.082;38.772;2023-11-18T01:43:30;8.57;;;3.67;;
71947;SDS011;63257;55.082;38.772;2023-11-18T01:46:03;11.63;;;4.03;;
71947;SDS011;63257;55.082;38.772;2023-11-18T01:48:36;11.30;;;4.95;;
71947;SDS011;63257;55.082;38.772;2023-11-18T01:51:04;13.85;;;4.97;;
71947;SDS011;63257;55.082;38.772;2023-11-18T01:53:34;20.02;;;4.85;;
71947;SDS011;63257;55.082;38.772;2023-11-18T01:56:02;13.73;;;5.10;;
71947;SDS011;63257;55.082;38.772;2023-11-18T01:58:31;14.85;;;5.10;;
71947;SDS011;63257;55.082;38.772;2023-11-18T02:01:02;14.10;;;5.10;;
71947;SDS011;63257;55.082;38.772;2023-11-18T02:03:34;13.60;;;5.60;;
71947;SDS011;63257;55.082;38.772;2023-11-18T02:06:01;16.92;;;5.38;;
71947;SDS011;63257;55.082;38.772;2023-11-18T02:08:31;7.40;;;2.75;;
71947;SDS011;63257;55.082;38.772;2023-11-18T02:11:14;15.23;;;5.40;;
71947;SDS011;63257;55.082;38.772;2023-11-18T02:13:47;13.30;;;5.97;;
71947;SDS011;63257;55.082;38.772;2023-11-18T02:16:16;10.50;;;4.15;;
71947;SDS011;63257;55.082;38.772;2023-11-18T02:18:45;12.95;;;5.75;;
71947;SDS011;63257;55.082;38.772;2023-11-18T02:21:12;16.27;;;5.80;;
71947;SDS011;63257;55.082;38.772;2023-11-18T02:23:40;14.60;;;5.63;;
71947;SDS011;63257;55.082;38.772;2023-11-18T02:26:09;13.02;;;5.32;;
71947;SDS011;63257;55.082;38.772;2023-11-18T02:28:35;14.73;;;5.60;;
71947;SDS011;63257;55.082;38.772;2023-11-18T02:31:10;15.10;;;5.32;;
71947;SDS011;63257;55.082;38.772;2023-11-18T02:33:44;12.75;;;5.63;;
71947;SDS011;63257;55.082;38.772;2023-11-18T02:39:18;16.30;;;6.20;;
71947;SDS011;63257;55.082;38.772;2023-11-18T02:41:48;18.55;;;5.68;;
71947;SDS011;63257;55.082;38.772;2023-11-18T02:44:18;14.95;;;5.72;;
71947;SDS011;63257;55.082;38.772;2023-11-18T02:46:48;13.27;;;6.23;;
71947;SDS011;63257;55.082;38.772;2023-11-18T02:49:14;13.63;;;5.10;;
71947;SDS011;63257;55.082;38.772;2023-11-18T02:51:41;13.85;;;4.95;;
71947;SDS011;63257;55.082;38.772;2023-11-18T02:54:09;13.20;;;6.53;;
71947;SDS011;63257;55.082;38.772;2023-11-18T02:56:36;11.45;;;4.57;;
71947;SDS011;63257;55.082;38.772;2023-11-18T02:59:03;15.27;;;6.35;;
71947;SDS011;63257;55.082;38.772;2023-11-18T03:01:35;11.50;;;4.20;;
71947;SDS011;63257;55.082;38.772;2023-11-18T03:04:01;13.35;;;5.32;;
71947;SDS011;63257;55.082;38.772;2023-11-18T03:06:27;13.93;;;6.00;;
71947;SDS011;63257;55.082;38.772;2023-11-18T03:08:53;13.07;;;6.37;;
71947;SDS011;63257;55.082;38.772;2023-11-18T03:11:20;14.57;;;6.47;;
71947;SDS011;63257;55.082;38.772;2023-11-18T03:13:46;9.10;;;4.35;;
71947;SDS011;63257;55.082;38.772;2023-11-18T03:16:11;18.40;;;6.07;;
71947;SDS011;63257;55.082;38.772;2023-11-18T03:18:39;19.42;;;5.85;;
71947;SDS011;63257;55.082;38.772;2023-11-18T03:21:06;19.27;;;6.03;;
71947;SDS011;63257;55.082;38.772;2023-11-18T03:23:38;16.07;;;6.70;;
71947;SDS011;63257;55.082;38.772;2023-11-18T03:26:07;16.63;;;6.65;;
71947;SDS011;63257;55.082;38.772;2023-11-18T03:28:33;13.27;;;5.30;;
71947;SDS011;63257;55.082;38.772;2023-11-18T03:30:59;16.47;;;5.97;;
71947;SDS011;63257;55.082;38.772;2023-11-18T03:33:25;12.98;;;6.45;;
71947;SDS011;63257;55.082;38.772;2023-11-18T03:35:51;16.73;;;7.53;;
71947;SDS011;63257;55.082;38.772;2023-11-18T03:38:16;17.05;;;6.65;;
71947;SDS011;63257;55.082;38.772;2023-11-18T03:40:43;20.77;;;7.10;;
71947;SDS011;63257;55.082;38.772;2023-11-18T03:43:10;15.95;;;7.10;;
71947;SDS011;63257;55.082;38.772;2023-11-18T03:45:40;13.48;;;5.90;;
71947;SDS011;63257;55.082;38.772;2023-11-18T03:48:07;18.77;;;7.50;;
71947;SDS011;63257;55.082;38.772;2023-11-18T03:50:33;18.00;;;6.72;;
71947;SDS011;63257;55.082;38.772;2023-11-18T03:53:00;10.73;;;6.20;;
71947;SDS011;63257;55.082;38.772;2023-11-18T03:55:29;14.38;;;5.95;;
71947;SDS011;63257;55.082;38.772;2023-11-18T03:57:55;13.70;;;5.67;;
71947;SDS011;63257;55.082;38.772;2023-11-18T04:00:23;10.85;;;4.47;;
71947;SDS011;63257;55.082;38.772;2023-11-18T04:02:57;17.65;;;5.53;;
71947;SDS011;63257;55.082;38.772;2023-11-18T04:05:23;12.50;;;4.73;;
71947;SDS011;63257;55.082;38.772;2023-11-18T04:07:49;22.10;;;7.25;;
71947;SDS011;63257;55.082;38.772;2023-11-18T04:10:15;16.90;;;6.10;;
71947;SDS011;63257;55.082;38.772;2023-11-18T04:12:43;14.87;;;6.70;;
71947;SDS011;63257;55.082;38.772;2023-11-18T04:15:12;16.23;;;6.75;;
71947;SDS011;63257;55.082;38.772;2023-11-18T04:17:38;17.77;;;7.47;;
71947;SDS011;63257;55.082;38.772;2023-11-18T04:20:06;12.57;;;4.20;;
71947;SDS011;63257;55.082;38.772;2023-11-18T04:22:40;20.70;;;7.10;;
71947;SDS011;63257;55.082;38.772;2023-11-18T04:25:07;15.57;;;6.28;;
71947;SDS011;63257;55.082;38.772;2023-11-18T04:27:35;9.05;;;3.13;;
71947;SDS011;63257;55.082;38.772;2023-11-18T04:30:03;13.00;;;4.72;;
71947;SDS011;63257;55.082;38.772;2023-11-18T04:32:30;8.98;;;4.03;;
71947;SDS011;63257;55.082;38.772;2023-11-18T04:35:00;17.52;;;7.43;;
71947;SDS011;63257;55.082;38.772;2023-11-18T04:37:34;16.93;;;5.57;;
71947;SDS011;63257;55.082;38.772;2023-11-18T04:40:01;18.70;;;8.05;;
71947;SDS011;63257;55.082;38.772;2023-11-18T04:42:31;9.40;;;4.93;;
71947;SDS011;63257;55.082;38.772;2023-11-18T04:44:57;10.63;;;4.37;;
71947;SDS011;63257;55.082;38.772;2023-11-18T04:47:25;9.55;;;4.25;;
71947;SDS011;63257;55.082;38.772;2023-11-18T04:49:53;7.95;;;3.15;;
71947;SDS011;63257;55.082;38.772;2023-11-18T04:52:20;8.63;;;3.90;;
71947;SDS011;63257;55.082;38.772;2023-11-18T04:54:46;13.43;;;4.15;;
71947;SDS011;63257;55.082;38.772;2023-11-18T04:57:14;9.77;;;4.45;;
71947;SDS011;63257;55.082;38.772;2023-11-18T04:59:41;14.20;;;5.87;;
71947;SDS011;63257;55.082;38.772;2023-11-18T05:02:08;15.35;;;6.25;;
71947;SDS011;63257;55.082;38.772;2023-11-18T05:04:34;17.70;;;6.80;;
71947;SDS011;63257;55.082;38.772;2023-11-18T05:07:01;20.80;;;8.10;;
71947;SDS011;63257;55.082;38.772;2023-11-18T05:09:28;10.50;;;4.45;;
71947;SDS011;63257;55.082;38.772;2023-11-18T05:11:54;12.65;;;4.22;;
71947;SDS011;63257;55.082;38.772;2023-11-18T05:14:20;13.50;;;5.43;;
71947;SDS011;63257;55.082;38.772;2023-11-18T05:16:46;16.52;;;6.32;;
71947;SDS011;63257;55.082;38.772;2023-11-18T05:19:12;10.35;;;3.97;;
71947;SDS011;63257;55.082;38.772;2023-11-18T05:21:40;16.67;;;7.00;;
71947;SDS011;63257;55.082;38.772;2023-11-18T05:24:06;20.08;;;5.38;;
71947;SDS011;63257;55.082;38.772;2023-11-18T05:26:32;11.40;;;5.00;;
71947;SDS011;63257;55.082;38.772;2023-11-18T05:29:00;10.45;;;4.47;;
71947;SDS011;63257;55.082;38.772;2023-11-18T05:31:27;16.85;;;7.00;;
71947;SDS011;63257;55.082;38.772;2023-11-18T05:33:54;19.70;;;7.60;;
71947;SDS011;63257;55.082;38.772;2023-11-18T05:36:21;12.27;;;4.70;;
71947;SDS011;63257;55.082;38.772;2023-11-18T05:38:54;21.03;;;6.77;;
71947;SDS011;63257;55.082;38.772;2023-11-18T05:41:20;17.77;;;7.22;;
71947;SDS011;63257;55.082;38.772;2023-11-18T05:43:54;16.58;;;6.53;;
71947;SDS011;63257;55.082;38.772;2023-11-18T05:46:23;12.33;;;5.33;;
71947;SDS011;63257;55.082;38.772;2023-11-18T05:48:52;13.57;;;5.93;;
71947;SDS011;63257;55.082;38.772;2023-11-18T05:51:22;17.05;;;6.70;;
71947;SDS011;63257;55.082;38.772;2023-11-18T05:53:51;8.48;;;2.97;;
71947;SDS011;63257;55.082;38.772;2023-11-18T05:56:18;9.32;;;3.28;;
71947;SDS011;63257;55.082;38.772;2023-11-18T05:58:45;33.35;;;7.05;;
71947;SDS011;63257;55.082;38.772;2023-11-18T06:01:12;12.43;;;5.88;;
71947;SDS011;63257;55.082;38.772;2023-11-18T06:03:38;22.00;;;8.23;;
71947;SDS011;63257;55.082;38.772;2023-11-18T06:06:06;21.55;;;7.88;;
71947;SDS011;63257;55.082;38.772;2023-11-18T06:08:39;16.92;;;6.75;;
71947;SDS011;63257;55.082;38.772;2023-11-18T06:11:08;18.83;;;5.77;;
71947;SDS011;63257;55.082;38.772;2023-11-18T06:13:59;13.13;;;5.82;;
71947;SDS011;63257;55.082;38.772;2023-11-18T06:16:25;12.10;;;5.13;;
71947;SDS011;63257;55.082;38.772;2023-11-18T06:18:52;19.95;;;7.00;;
71947;SDS011;63257;55.082;38.772;2023-11-18T06:21:23;13.23;;;5.55;;
71947;SDS011;63257;55.082;38.772;2023-11-18T06:23:50;24.40;;;7.55;;
71947;SDS011;63257;55.082;38.772;2023-11-18T06:26:16;18.02;;;6.88;;
71947;SDS011;63257;55.082;38.772;2023-11-18T06:28:46;22.77;;;6.78;;
71947;SDS011;63257;55.082;38.772;2023-11-18T06:31:14;15.02;;;5.20;;
71947;SDS011;63257;55.082;38.772;2023-11-18T06:33:40;16.03;;;5.40;;
71947;SDS011;63257;55.082;38.772;2023-11-18T06:38:42;14.95;;;6.15;;
71947;SDS011;63257;55.082;38.772;2023-11-18T06:41:12;14.48;;;4.63;;
71947;SDS011;63257;55.082;38.772;2023-11-18T06:43:41;16.52;;;4.82;;
71947;SDS011;63257;55.082;38.772;2023-11-18T06:46:30;11.40;;;5.00;;
71947;SDS011;63257;55.082;38.772;2023-11-18T06:48:59;14.07;;;5.93;;
71947;SDS011;63257;55.082;38.772;2023-11-18T06:51:31;15.93;;;6.23;;
71947;SDS011;63257;55.082;38.772;2023-11-18T06:54:01;15.57;;;6.15;;
71947;SDS011;63257;55.082;38.772;2023-11-18T06:56:34;11.57;;;5.03;;
71947;SDS011;63257;55.082;38.772;2023-11-18T06:59:03;16.93;;;3.97;;
71947;SDS011;63257;55.082;38.772;2023-11-18T07:01:30;17.02;;;6.50;;
71947;SDS011;63257;55.082;38.772;2023-11-18T07:03:56;22.20;;;6.78;;
71947;SDS011;63257;55.082;38.772;2023-11-18T07:06:22;20.50;;;7.30;;
71947;SDS011;63257;55.082;38.772;2023-11-18T07:08:49;14.10;;;6.38;;
71947;SDS011;63257;55.082;38.772;2023-11-18T07:11:15;13.93;;;5.60;;
71947;SDS011;63257;55.082;38.772;2023-11-18T07:13:42;15.05;;;5.53;;
71947;SDS011;63257;55.082;38.772;2023-11-18T07:16:08;14.57;;;6.07;;
71947;SDS011;63257;55.082;38.772;2023-11-18T07:18:35;18.52;;;6.18;;
71947;SDS011;63257;55.082;38.772;2023-11-18T07:21:02;14.40;;;6.50;;
71947;SDS011;63257;55.082;38.772;2023-11-18T07:23:32;20.57;;;6.10;;
71947;SDS011;63257;55.082;38.772;2023-11-18T07:25:58;23.15;;;5.95;;
71947;SDS011;63257;55.082;38.772;2023-11-18T07:28:24;19.88;;;5.32;;
71947;SDS011;63257;55.082;38.772;2023-11-18T07:30:52;13.90;;;5.93;;
71947;SDS011;63257;55.082;38.772;2023-11-18T07:33:19;35.85;;;8.80;;
71947;SDS011;63257;55.082;38.772;2023-11-18T07:35:46;25.38;;;6.30;;
71947;SDS011;63257;55.082;38.772;2023-11-18T07:38:13;12.02;;;5.32;;
71947;SDS011;63257;55.082;38.772;2023-11-18T07:40:45;12.97;;;4.93;;
71947;SDS011;63257;55.082;38.772;2023-11-18T07:43:12;14.90;;;5.70;;
71947;SDS011;63257;55.082;38.772;2023-11-18T07:45:38;12.60;;;5.20;;
71947;SDS011;63257;55.082;38.772;2023-11-18T07:48:05;16.83;;;6.93;;
71947;SDS011;63257;55.082;38.772;2023-11-18T07:50:35;18.63;;;7.20;;
71947;SDS011;63257;55.082;38.772;2023-11-18T07:53:02;27.33;;;6.55;;
71947;SDS011;63257;55.082;38.772;2023-11-18T07:55:29;14.60;;;6.50;;
71947;SDS011;63257;55.082;38.772;2023-11-18T07:57:55;23.63;;;7.63;;
71947;SDS011;63257;55.082;38.772;2023-11-18T08:00:21;25.08;;;7.05;;
71947;SDS011;63257;55.082;38.772;2023-11-18T08:02:49;15.40;;;6.72;;
71947;SDS011;63257;55.082;38.772;2023-11-18T08:05:15;18.20;;;6.93;;
71947;SDS011;63257;55.082;38.772;2023-11-18T08:07:41;20.52;;;6.55;;
71947;SDS011;63257;55.082;38.772;2023-11-18T08:10:09;16.70;;;6.57;;
71947;SDS011;63257;55.082;38.772;2023-11-18T08:12:38;15.80;;;6.50;;
71947;SDS011;63257;55.082;38.772;2023-11-18T08:15:08;20.20;;;7.28;;
71947;SDS011;63257;55.082;38.772;2023-11-18T08:17:35;18.70;;;6.57;;
71947;SDS011;63257;55.082;38.772;2023-11-18T08:20:00;21.63;;;7.10;;
71947;SDS011;63257;55.082;38.772;2023-11-18T08:22:32;25.27;;;7.43;;
71947;SDS011;63257;55.082;38.772;2023-11-18T08:24:59;21.97;;;6.73;;
71947;SDS011;63257;55.082;38.772;2023-11-18T08:27:25;21.30;;;6.38;;
71947;SDS011;63257;55.082;38.772;2023-11-18T08:29:51;16.00;;;6.18;;
71947;SDS011;63257;55.082;38.772;2023-11-18T08:32:17;11.57;;;5.23;;
71947;SDS011;63257;55.082;38.772;2023-11-18T08:34:42;16.52;;;5.70;;
71947;SDS011;63257;55.082;38.772;2023-11-18T08:37:09;17.85;;;6.50;;
71947;SDS011;63257;55.082;38.772;2023-11-18T08:39:34;14.20;;;5.75;;
71947;SDS011;63257;55.082;38.772;2023-11-18T08:42:00;25.93;;;6.40;;
71947;SDS011;63257;55.082;38.772;2023-11-18T08:44:27;13.05;;;5.45;;
71947;SDS011;63257;55.082;38.772;2023-11-18T08:46:54;12.60;;;5.35;;
71947;SDS011;63257;55.082;38.772;2023-11-18T08:49:23;12.93;;;4.85;;
71947;SDS011;63257;55.082;38.772;2023-11-18T08:51:48;14.48;;;6.03;;
71947;SDS011;63257;55.082;38.772;2023-11-18T08:54:21;15.45;;;5.88;;
71947;SDS011;63257;55.082;38.772;2023-11-18T08:56:48;11.93;;;4.60;;
71947;SDS011;63257;55.082;38.772;2023-11-18T08:59:17;11.50;;;4.95;;
71947;SDS011;63257;55.082;38.772;2023-11-18T09:01:51;11.32;;;4.30;;
71947;SDS011;63257;55.082;38.772;2023-11-18T09:04:24;10.83;;;4.43;;
71947;SDS011;63257;55.082;38.772;2023-11-18T09:06:51;12.57;;;5.10;;
71947;SDS011;63257;55.082;38.772;2023-11-18T09:09:23;8.57;;;3.33;;
71947;SDS011;63257;55.082;38.772;2023-11-18T09:11:53;7.43;;;3.17;;
71947;SDS011;63257;55.082;38.772;2023-11-18T09:14:26;14.18;;;4.75;;
71947;SDS011;63257;55.082;38.772;2023-11-18T09:16:52;13.90;;;4.20;;
71947;SDS011;63257;55.082;38.772;2023-11-18T09:19:21;20.73;;;4.65;;
71947;SDS011;63257;55.082;38.772;2023-11-18T09:21:47;14.10;;;4.13;;
71947;SDS011;63257;55.082;38.772;2023-11-18T09:24:14;11.20;;;4.40;;
71947;SDS011;63257;55.082;38.772;2023-11-18T09:26:45;9.38;;;3.38;;
71947;SDS011;63257;55.082;38.772;2023-11-18T09:29:18;13.98;;;3.90;;
71947;SDS011;63257;55.082;38.772;2023-11-18T09:31:49;9.27;;;4.05;;
71947;SDS011;63257;55.082;38.772;2023-11-18T09:34:18;9.18;;;3.55;;
71947;SDS011;63257;55.082;38.772;2023-11-18T09:36:53;8.80;;;3.90;;
71947;SDS011;63257;55.082;38.772;2023-11-18T09:39:20;8.32;;;4.00;;
71947;SDS011;63257;55.082;38.772;2023-11-18T09:42:04;5.32;;;2.10;;
71947;SDS011;63257;55.082;38.772;2023-11-18T09:44:35;10.67;;;2.83;;
71947;SDS011;63257;55.082;38.772;2023-11-18T09:47:03;7.93;;;3.40;;
71947;SDS011;63257;55.082;38.772;2023-11-18T09:49:38;16.60;;;4.18;;
71947;SDS011;63257;55.082;38.772;2023-11-18T09:52:09;9.18;;;3.50;;
71947;SDS011;63257;55.082;38.772;2023-11-18T10:00:05;10.55;;;3.67;;
71947;SDS011;63257;55.082;38.772;2023-11-18T10:02:52;15.00;;;4.47;;
71947;SDS011;63257;55.082;38.772;2023-11-18T10:05:21;7.50;;;2.28;;
71947;SDS011;63257;55.082;38.772;2023-11-18T10:07:49;10.55;;;2.80;;
71947;SDS011;63257;55.082;38.772;2023-11-18T10:10:16;13.00;;;2.67;;
71947;SDS011;63257;55.082;38.772;2023-11-18T10:12:42;6.10;;;2.00;;
71947;SDS011;63257;55.082;38.772;2023-11-18T10:15:11;8.07;;;1.90;;
71947;SDS011;63257;55.082;38.772;2023-11-18T10:17:41;16.25;;;3.17;;
71947;SDS011;63257;55.082;38.772;2023-11-18T10:20:21;8.93;;;3.05;;
71947;SDS011;63257;55.082;38.772;2023-11-18T10:23:24;8.20;;;3.45;;
71947;SDS011;63257;55.082;38.772;2023-11-18T10:28:25;11.33;;;3.73;;
71947;SDS011;63257;55.082;38.772;2023-11-18T10:31:01;10.02;;;4.22;;
71947;SDS011;63257;55.082;38.772;2023-11-18T10:33:38;15.02;;;4.45;;
71947;SDS011;63257;55.082;38.772;2023-11-18T10:36:19;14.60;;;3.40;;
71947;SDS011;63257;55.082;38.772;2023-11-18T10:38:50;11.57;;;3.78;;
71947;SDS011;63257;55.082;38.772;2023-11-18T10:41:21;11.25;;;4.28;;
71947;SDS011;63257;55.082;38.772;2023-11-18T10:43:48;13.65;;;4.05;;
71947;SDS011;63257;55.082;38.772;2023-11-18T10:46:14;10.45;;;3.90;;
71947;SDS011;63257;55.082;38.772;2023-11-18T10:48:46;10.50;;;3.22;;
71947;SDS011;63257;55.082;38.772;2023-11-18T10:51:14;10.88;;;3.58;;
71947;SDS011;63257;55.082;38.772;2023-11-18T10:53:42;6.05;;;2.58;;
71947;SDS011;63257;55.082;38.772;2023-11-18T10:56:22;7.30;;;2.53;;
71947;SDS011;63257;55.082;38.772;2023-11-18T10:58:56;6.88;;;2.20;;
71947;SDS011;63257;55.082;38.772;2023-11-18T11:03:57;10.40;;;3.33;;
71947;SDS011;63257;55.082;38.772;2023-11-18T11:06:24;9.32;;;3.42;;
71947;SDS011;63257;55.082;38.772;2023-11-18T11:08:51;12.53;;;3.33;;
71947;SDS011;63257;55.082;38.772;2023-11-18T11:11:21;12.82;;;3.60;;
71947;SDS011;63257;55.082;38.772;2023-11-18T11:13:53;11.25;;;3.38;;
71947;SDS011;63257;55.082;38.772;2023-11-18T11:16:23;11.25;;;3.17;;
71947;SDS011;63257;55.082;38.772;2023-11-18T11:19:18;11.60;;;3.40;;
71947;SDS011;63257;55.082;38.772;2023-11-18T11:22:09;12.80;;;3.80;;
71947;SDS011;63257;55.082;38.772;2023-11-18T11:24:49;17.95;;;4.40;;
71947;SDS011;63257;55.082;38.772;2023-11-18T11:27:46;11.07;;;4.10;;
71947;SDS011;63257;55.082;38.772;2023-11-18T11:30:42;12.15;;;3.60;;
71947;SDS011;63257;55.082;38.772;2023-11-18T11:33:25;11.88;;;3.55;;
71947;SDS011;63257;55.082;38.772;2023-11-18T11:36:15;9.20;;;3.70;;
71947;SDS011;63257;55.082;38.772;2023-11-18T11:38:49;9.75;;;3.92;;
71947;SDS011;63257;55.082;38.772;2023-11-18T11:41:17;9.82;;;3.22;;
71947;SDS011;63257;55.082;38.772;2023-11-18T11:43:52;10.93;;;3.88;;
71947;SDS011;63257;55.082;38.772;2023-11-18T11:46:24;9.45;;;4.00;;
71947;SDS011;63257;55.082;38.772;2023-11-18T11:48:59;9.85;;;3.45;;
71947;SDS011;63257;55.082;38.772;2023-11-18T11:51:41;13.88;;;4.20;;
71947;SDS011;63257;55.082;38.772;2023-11-18T11:54:17;14.10;;;4.20;;
71947;SDS011;63257;55.082;38.772;2023-11-18T11:56:47;10.10;;;4.00;;
71947;SDS011;63257;55.082;38.772;2023-11-18T12:00:09;12.55;;;5.00;;
71947;SDS011;63257;55.082;38.772;2023-11-18T12:02:22;12.47;;;5.33;;
71947;SDS011;63257;55.082;38.772;2023-11-18T12:04:55;14.77;;;5.60;;
71947;SDS011;63257;55.082;38.772;2023-11-18T12:07:25;9.38;;;4.20;;
71947;SDS011;63257;55.082;38.772;2023-11-18T12:09:56;16.15;;;4.35;;
71947;SDS011;63257;55.082;38.772;2023-11-18T12:12:24;10.13;;;4.50;;
71947;SDS011;63257;55.082;38.772;2023-11-18T12:14:59;9.88;;;3.35;;
71947;SDS011;63257;55.082;38.772;2023-11-18T12:20:39;14.47;;;5.67;;
71947;SDS011;63257;55.082;38.772;2023-11-18T12:23:19;15.13;;;5.35;;
71947;SDS011;63257;55.082;38.772;2023-11-18T12:25:49;11.23;;;4.22;;
71947;SDS011;63257;55.082;38.772;2023-11-18T12:28:21;11.00;;;4.63;;
71947;SDS011;63257;55.082;38.772;2023-11-18T12:30:52;11.73;;;4.55;;
71947;SDS011;63257;55.082;38.772;2023-11-18T12:33:23;11.57;;;4.63;;
71947;SDS011;63257;55.082;38.772;2023-11-18T12:41:54;13.27;;;4.93;;
71947;SDS011;63257;55.082;38.772;2023-11-18T12:46:53;11.27;;;3.57;;
71947;SDS011;63257;55.082;38.772;2023-11-18T12:49:21;14.48;;;4.15;;
71947;SDS011;63257;55.082;38.772;2023-11-18T12:51:50;12.02;;;3.20;;
71947;SDS011;63257;55.082;38.772;2023-11-18T12:54:18;9.23;;;3.93;;
71947;SDS011;63257;55.082;38.772;2023-11-18T12:56:45;13.68;;;4.75;;
71947;SDS011;63257;55.082;38.772;2023-11-18T12:59:17;11.60;;;4.90;;
71947;SDS011;63257;55.082;38.772;2023-11-18T13:01:44;17.05;;;5.25;;
71947;SDS011;63257;55.082;38.772;2023-11-18T13:04:17;16.13;;;5.15;;
71947;SDS011;63257;55.082;38.772;2023-11-18T13:06:46;9.57;;;4.00;;
71947;SDS011;63257;55.082;38.772;2023-11-18T13:09:14;16.00;;;5.60;;
71947;SDS011;63257;55.082;38.772;2023-11-18T13:11:54;14.83;;;4.53;;
71947;SDS011;63257;55.082;38.772;2023-11-18T13:14:28;13.48;;;4.75;;
71947;SDS011;63257;55.082;38.772;2023-11-18T13:17:04;13.20;;;4.85;;
71947;SDS011;63257;55.082;38.772;2023-11-18T13:19:34;14.43;;;5.80;;
71947;SDS011;63257;55.082;38.772;2023-11-18T13:22:02;19.25;;;7.40;;
71947;SDS011;63257;55.082;38.772;2023-11-18T13:24:35;19.33;;;6.93;;
71947;SDS011;63257;55.082;38.772;2023-11-18T13:27:06;16.00;;;5.40;;
71947;SDS011;63257;55.082;38.772;2023-11-18T13:29:37;17.73;;;6.30;;
71947;SDS011;63257;55.082;38.772;2023-11-18T13:32:07;14.77;;;5.70;;
71947;SDS011;63257;55.082;38.772;2023-11-18T13:34:35;16.60;;;4.97;;
71947;SDS011;63257;55.082;38.772;2023-11-18T13:37:08;13.03;;;5.33;;
71947;SDS011;63257;55.082;38.772;2023-11-18T13:39:36;13.93;;;5.38;;
71947;SDS011;63257;55.082;38.772;2023-11-18T13:42:20;14.23;;;5.93;;
71947;SDS011;63257;55.082;38.772;2023-11-18T13:44:47;19.60;;;6.63;;
71947;SDS011;63257;55.082;38.772;2023-11-18T13:47:15;18.13;;;6.18;;
71947;SDS011;63257;55.082;38.772;2023-11-18T13:49:42;15.43;;;5.55;;
71947;SDS011;63257;55.082;38.772;2023-11-18T13:52:09;18.60;;;6.25;;
71947;SDS011;63257;55.082;38.772;2023-11-18T13:54:41;23.08;;;6.53;;
71947;SDS011;63257;55.082;38.772;2023-11-18T13:57:10;18.23;;;6.85;;
71947;SDS011;63257;55.082;38.772;2023-11-18T13:59:39;25.70;;;7.35;;
71947;SDS011;63257;55.082;38.772;2023-11-18T14:02:08;19.20;;;6.90;;
71947;SDS011;63257;55.082;38.772;2023-11-18T14:04:34;34.83;;;8.45;;
71947;SDS011;63257;55.082;38.772;2023-11-18T14:07:01;25.13;;;9.00;;
71947;SDS011;63257;55.082;38.772;2023-11-18T14:09:38;20.93;;;7.17;;
71947;SDS011;63257;55.082;38.772;2023-11-18T14:12:07;25.08;;;10.23;;
71947;SDS011;63257;55.082;38.772;2023-11-18T14:14:34;23.65;;;8.85;;
71947;SDS011;63257;55.082;38.772;2023-11-18T14:17:00;19.40;;;8.10;;
71947;SDS011;63257;55.082;38.772;2023-11-18T14:19:27;29.50;;;9.65;;
71947;SDS011;63257;55.082;38.772;2023-11-18T14:21:53;24.90;;;9.43;;
71947;SDS011;63257;55.082;38.772;2023-11-18T14:24:20;28.08;;;11.05;;
71947;SDS011;63257;55.082;38.772;2023-11-18T14:26:48;32.05;;;12.07;;
71947;SDS011;63257;55.082;38.772;2023-11-18T14:29:16;26.35;;;10.98;;
71947;SDS011;63257;55.082;38.772;2023-11-18T14:31:42;29.33;;;11.80;;
71947;SDS011;63257;55.082;38.772;2023-11-18T14:34:09;28.70;;;11.57;;
71947;SDS011;63257;55.082;38.772;2023-11-18T14:36:38;23.90;;;9.48;;
71947;SDS011;63257;55.082;38.772;2023-11-18T14:39:05;31.38;;;12.35;;
71947;SDS011;63257;55.082;38.772;2023-11-18T14:41:35;27.77;;;10.47;;
71947;SDS011;63257;55.082;38.772;2023-11-18T14:44:02;29.83;;;11.43;;
71947;SDS011;63257;55.082;38.772;2023-11-18T14:46:30;33.55;;;12.30;;
71947;SDS011;63257;55.082;38.772;2023-11-18T14:48:57;29.60;;;11.63;;
71947;SDS011;63257;55.082;38.772;2023-11-18T14:51:23;29.83;;;11.20;;
71947;SDS011;63257;55.082;38.772;2023-11-18T14:53:49;27.92;;;10.50;;
71947;SDS011;63257;55.082;38.772;2023-11-18T14:56:15;30.17;;;11.23;;
71947;SDS011;63257;55.082;38.772;2023-11-18T14:58:41;27.43;;;11.43;;
71947;SDS011;63257;55.082;38.772;2023-11-18T15:01:07;34.92;;;10.98;;
71947;SDS011;63257;55.082;38.772;2023-11-18T15:03:36;21.47;;;10.10;;